Terminal Aerodrome Forecast
Issued by NWS

Home | Current Version | Previous Version | Text Only | Print | Product List | Glossary On
Versions: 1 2 3 4 5 6 7 8 9 10 11 12 13 14 15 16 17 18 19 20 21 22 23 24 25
000
FTUS41 KPBZ 212000 AAA
TAFLBE
TAF AMD
KLBE 212027Z 2120/2218 30010KT P6SM VCSH SCT015 BKN035
      TEMPO 2120/2122 OVC025
     FM220200 31008KT P6SM VCSH SCT010 BKN015
     FM221200 33008KT P6SM BKN015 OVC025
     FM221600 33009KT P6SM BKN025=

USA.gov is the U.S. government's official web portal to all federal, state and local government web resources and services.